Time;durP1;ratioP1;P1;durP2;ratioP2;P2;SDS_P1;SDS_P2;PMS_P1;PMS_P2;Temp;Humidity;BMP_temperature;BMP_pressure;BME280_temperature;BME280_humidity;BME280_pressure;Samples;Min_cycle;Max_cycle;Signal;HPM_P1;HPM_P2
2023/09/23 00:00:56;;;;;;;;;;;21.50;70.60;;;;;;5016710;28;1395;-69
2023/09/23 00:03:23;;;;;;;;;;;21.50;70.60;;;;;;5043205;28;1793;-69
2023/09/23 00:05:49;;;;;;;;;;;21.50;70.60;;;;;;5041756;28;1453;-69
2023/09/23 00:08:18;;;;;;;;;;;21.50;70.60;;;;;;5024305;28;1236;-69
2023/09/23 00:10:46;;;;;;;;;;;21.50;70.70;;;;;;5038128;28;1122;-69
2023/09/23 00:13:11;;;;;;;;;;;21.50;70.60;;;;;;5023113;28;1911;-69
2023/09/23 00:15:41;;;;;;;;;;;21.50;70.60;;;;;;5021247;28;1293;-69
2023/09/23 00:18:06;;;;;;;;;;;21.50;70.60;;;;;;5040086;28;1450;-68
2023/09/23 00:20:33;;;;;;;;;;;21.50;70.60;;;;;;5040899;28;1322;-70
2023/09/23 00:22:58;;;;;;;;;;;21.50;70.70;;;;;;5021822;28;1413;-68
2023/09/23 00:25:24;;;;;;;;;;;21.50;70.60;;;;;;5041733;28;1807;-69
2023/09/23 00:27:53;;;;;;;;;;;21.50;70.70;;;;;;5023575;28;1631;-69
2023/09/23 00:30:19;;;;;;;;;;;21.50;70.70;;;;;;5042206;28;1231;-68
2023/09/23 00:32:45;;;;;;;;;;;21.50;70.70;;;;;;5024807;28;2002;-68
2023/09/23 00:35:11;;;;;;;;;;;21.50;70.70;;;;;;5027124;28;1522;-68
2023/09/23 00:37:38;;;;;;;;;;;21.50;70.70;;;;;;5019939;28;1257;-68
2023/09/23 00:40:04;;;;;;;;;;;21.50;70.70;;;;;;5023755;28;1376;-66
2023/09/23 00:42:30;;;;;;;;;;;21.50;70.70;;;;;;5042002;28;1188;-67
2023/09/23 00:44:55;;;;;;;;;;;21.50;70.70;;;;;;5045285;28;1296;-66
2023/09/23 00:47:21;;;;;;;;;;;21.50;70.70;;;;;;5042350;28;1455;-68
2023/09/23 00:49:46;;;;;;;;;;;21.50;70.70;;;;;;5043261;28;1312;-68
2023/09/23 00:52:16;;;;;;;;;;;21.50;70.70;;;;;;5023794;28;1906;-68
2023/09/23 00:54:46;;;;;;;;;;;21.50;70.70;;;;;;5027295;28;1470;-69
2023/09/23 00:57:12;;;;;;;;;;;21.50;70.70;;;;;;5025593;28;1107;-67
2023/09/23 00:59:40;;;;;;;;;;;21.50;70.60;;;;;;5023344;28;1286;-67
2023/09/23 01:02:05;;;;;;;;;;;21.50;70.70;;;;;;5041193;28;1237;-67
2023/09/23 01:04:31;;;;;;;;;;;21.50;70.70;;;;;;5038450;28;1370;-67
2023/09/23 01:06:59;;;;;;;;;;;21.50;70.70;;;;;;5023662;28;1445;-66
2023/09/23 01:09:25;;;;;;;;;;;21.50;70.70;;;;;;5021911;28;1391;-67
2023/09/23 01:11:51;;;;;;;;;;;21.50;70.70;;;;;;5042396;28;1424;-66
2023/09/23 01:14:21;;;;;;;;;;;21.50;70.70;;;;;;5022820;28;1914;-66
2023/09/23 01:16:50;;;;;;;;;;;21.50;70.70;;;;;;5068380;22;3486;-66
2023/09/23 01:19:16;;;;;;;;;;;21.50;70.70;;;;;;5039943;28;1612;-66
2023/09/23 01:21:41;;;;;;;;;;;21.50;70.70;;;;;;5039339;28;1188;-66
2023/09/23 01:24:07;;;;;;;;;;;21.50;70.70;;;;;;5038886;28;1216;-66
2023/09/23 01:26:34;;;;;;;;;;;21.50;70.70;;;;;;5040253;28;1263;-66
2023/09/23 01:29:00;;;;;;;;;;;21.50;70.70;;;;;;5039038;28;1140;-66
2023/09/23 01:31:29;;;;;;;;;;;21.50;70.70;;;;;;5037000;28;1831;-66
2023/09/23 01:33:56;;;;;;;;;;;21.50;70.80;;;;;;5021422;28;1922;-66
2023/09/23 01:36:21;;;;;;;;;;;21.50;70.70;;;;;;5020410;28;1464;-66
2023/09/23 01:38:48;;;;;;;;;;;21.50;70.80;;;;;;5038758;28;1452;-66
2023/09/23 01:41:16;;;;;;;;;;;21.50;70.70;;;;;;5021232;28;1366;-66
2023/09/23 01:43:41;;;;;;;;;;;21.50;70.70;;;;;;5040159;28;1416;-66
2023/09/23 01:46:07;;;;;;;;;;;21.50;70.80;;;;;;5005298;28;1456;-66
2023/09/23 01:48:33;;;;;;;;;;;21.50;71.60;;;;;;5038233;28;1438;-66
2023/09/23 01:50:58;;;;;;;;;;;21.50;70.70;;;;;;5023323;28;1388;-66
2023/09/23 01:53:25;;;;;;;;;;;21.50;70.80;;;;;;5022060;28;1909;-66
2023/09/23 01:55:51;;;;;;;;;;;21.50;70.80;;;;;;5039888;28;872;-66
2023/09/23 01:58:16;;;;;;;;;;;21.50;70.80;;;;;;5040281;28;1493;-66
2023/09/23 02:00:42;;;;;;;;;;;21.50;70.80;;;;;;5041427;28;1008;-66
2023/09/23 02:03:08;;;;;;;;;;;21.50;70.80;;;;;;5043486;28;1188;-66
2023/09/23 02:05:33;;;;;;;;;;;21.50;70.80;;;;;;5020577;28;1258;-66
2023/09/23 02:07:59;;;;;;;;;;;21.50;70.80;;;;;;5037131;28;1343;-66
2023/09/23 02:10:26;;;;;;;;;;;21.40;70.80;;;;;;5045392;28;1322;-66
2023/09/23 02:12:52;;;;;;;;;;;21.50;70.80;;;;;;5009165;28;1973;-66
2023/09/23 02:15:18;;;;;;;;;;;21.50;70.80;;;;;;5009553;28;1414;-66
2023/09/23 02:17:44;;;;;;;;;;;21.50;70.80;;;;;;5039077;28;1343;-66
2023/09/23 02:20:19;;;;;;;;;;;21.50;70.80;;;;;;5023286;28;1593;-66
2023/09/23 02:22:47;;;;;;;;;;;21.50;70.80;;;;;;5037512;28;1623;-66
2023/09/23 02:25:13;;;;;;;;;;;21.50;70.80;;;;;;5043887;28;1513;-66
2023/09/23 02:27:40;;;;;;;;;;;21.50;70.80;;;;;;5026170;28;1434;-66
2023/09/23 02:30:06;;;;;;;;;;;21.50;70.80;;;;;;5029836;28;1407;-66
2023/09/23 02:32:31;;;;;;;;;;;21.50;70.80;;;;;;5024145;28;2003;-67
2023/09/23 02:34:57;;;;;;;;;;;21.50;70.90;;;;;;5044028;28;1281;-66
2023/09/23 02:37:26;;;;;;;;;;;21.50;70.80;;;;;;5039725;28;1566;-65
2023/09/23 02:39:52;;;;;;;;;;;21.50;70.80;;;;;;5023592;28;1440;-66
2023/09/23 02:42:17;;;;;;;;;;;21.50;70.90;;;;;;5039381;28;1365;-66
2023/09/23 02:44:43;;;;;;;;;;;21.50;70.90;;;;;;5040766;28;1459;-66
2023/09/23 02:47:08;;;;;;;;;;;21.50;70.90;;;;;;5040856;28;1485;-66
2023/09/23 02:49:34;;;;;;;;;;;21.50;70.90;;;;;;5043770;28;1418;-66
2023/09/23 02:52:00;;;;;;;;;;;21.40;70.80;;;;;;5038421;28;1447;-66
2023/09/23 02:54:27;;;;;;;;;;;21.50;70.90;;;;;;5038648;28;1510;-66
2023/09/23 02:56:52;;;;;;;;;;;21.50;70.90;;;;;;5023944;28;1387;-66
2023/09/23 02:59:26;;;;;;;;;;;21.50;70.90;;;;;;5041653;28;1432;-66
2023/09/23 03:01:53;;;;;;;;;;;21.50;70.90;;;;;;5041548;28;1257;-66
2023/09/23 03:04:21;;;;;;;;;;;21.50;71.70;;;;;;5043816;28;1546;-66
2023/09/23 03:06:49;;;;;;;;;;;21.50;70.90;;;;;;5043147;28;1311;-66
2023/09/23 03:09:23;;;;;;;;;;;21.40;70.80;;;;;;5026712;28;1335;-66
2023/09/23 03:11:53;;;;;;;;;;;21.50;70.90;;;;;;5044594;28;939;-66
2023/09/23 03:14:40;;;;;;;;;;;21.50;70.90;;;;;;5023381;28;1894;-67
2023/09/23 03:17:07;;;;;;;;;;;21.50;70.90;;;;;;5026071;28;1410;-66
2023/09/23 03:19:33;;;;;;;;;;;21.50;70.90;;;;;;5027597;28;1349;-66
2023/09/23 03:21:58;;;;;;;;;;;21.50;70.90;;;;;;5023871;28;1491;-66
2023/09/23 03:24:25;;;;;;;;;;;21.50;70.90;;;;;;5046337;28;1473;-66
2023/09/23 03:26:51;;;;;;;;;;;21.50;70.90;;;;;;5026876;28;1422;-66
2023/09/23 03:29:18;;;;;;;;;;;21.50;71.00;;;;;;5024324;28;1350;-66
2023/09/23 03:31:43;;;;;;;;;;;21.50;70.90;;;;;;5025552;28;1391;-66
2023/09/23 03:34:13;;;;;;;;;;;21.50;70.90;;;;;;5040742;28;1955;-66
2023/09/23 03:36:39;;;;;;;;;;;21.50;70.90;;;;;;5040584;28;1319;-66
2023/09/23 03:39:04;;;;;;;;;;;21.50;71.00;;;;;;5031865;28;1470;-66
2023/09/23 03:41:30;;;;;;;;;;;21.50;70.90;;;;;;5043684;28;1150;-66
2023/09/23 03:43:56;;;;;;;;;;;21.50;70.90;;;;;;5026803;28;1224;-66
2023/09/23 03:46:21;;;;;;;;;;;21.50;70.90;;;;;;5041188;28;1350;-66
2023/09/23 03:48:47;;;;;;;;;;;21.50;70.90;;;;;;5042600;28;1223;-66
2023/09/23 03:51:14;;;;;;;;;;;21.50;70.90;;;;;;5042350;28;1341;-66
2023/09/23 03:53:40;;;;;;;;;;;21.50;70.90;;;;;;5044877;28;1902;-66
2023/09/23 03:56:05;;;;;;;;;;;21.50;70.90;;;;;;5022771;28;1480;-66
2023/09/23 03:58:31;;;;;;;;;;;21.50;71.00;;;;;;5045209;28;1315;-66
2023/09/23 04:01:00;;;;;;;;;;;21.50;71.00;;;;;;5026003;28;1248;-66
2023/09/23 04:03:25;;;;;;;;;;;21.50;71.00;;;;;;5024006;28;1262;-66
2023/09/23 04:05:55;;;;;;;;;;;21.50;71.00;;;;;;5040962;28;1501;-66
2023/09/23 04:08:20;;;;;;;;;;;21.50;71.00;;;;;;5041177;28;1283;-66
2023/09/23 04:10:46;;;;;;;;;;;21.50;71.00;;;;;;5023537;28;1278;-66
2023/09/23 04:13:14;;;;;;;;;;;21.50;71.00;;;;;;5040963;28;1906;-66
2023/09/23 04:15:40;;;;;;;;;;;21.50;71.00;;;;;;5042955;28;1312;-66
2023/09/23 04:18:05;;;;;;;;;;;21.50;71.00;;;;;;5043063;28;1446;-66
2023/09/23 04:20:32;;;;;;;;;;;21.50;71.00;;;;;;5045179;28;1373;-66
2023/09/23 04:22:57;;;;;;;;;;;21.50;71.00;;;;;;5044158;28;1211;-66
2023/09/23 04:25:23;;;;;;;;;;;21.50;71.00;;;;;;5045006;28;1229;-67
2023/09/23 04:27:49;;;;;;;;;;;21.50;71.00;;;;;;5044010;28;1256;-66
2023/09/23 04:30:15;;;;;;;;;;;21.50;71.00;;;;;;5044102;28;989;-66
2023/09/23 04:32:41;;;;;;;;;;;21.50;71.00;;;;;;5042867;28;1969;-66
2023/09/23 04:35:07;;;;;;;;;;;21.50;71.00;;;;;;5024628;28;1117;-67
2023/09/23 04:37:37;;;;;;;;;;;21.50;71.00;;;;;;5040998;28;1274;-66
2023/09/23 04:40:06;;;;;;;;;;;21.50;71.00;;;;;;5040594;28;1670;-66
2023/09/23 04:42:31;;;;;;;;;;;21.50;71.00;;;;;;5040842;28;1403;-66
2023/09/23 04:44:57;;;;;;;;;;;21.50;71.00;;;;;;5040154;28;1520;-66
2023/09/23 04:47:22;;;;;;;;;;;21.50;71.00;;;;;;5040337;28;1971;-67
2023/09/23 04:49:48;;;;;;;;;;;21.50;71.00;;;;;;5042975;28;1243;-66
2023/09/23 04:52:16;;;;;;;;;;;21.50;71.00;;;;;;5040771;28;1910;-66
2023/09/23 04:54:43;;;;;;;;;;;21.50;71.00;;;;;;5024307;28;1505;-66
2023/09/23 04:57:09;;;;;;;;;;;21.50;71.00;;;;;;5040321;28;1396;-66
2023/09/23 04:59:35;;;;;;;;;;;21.50;71.00;;;;;;5041634;28;1386;-66
2023/09/23 05:02:00;;;;;;;;;;;21.50;71.00;;;;;;5042232;28;1842;-66
2023/09/23 05:04:25;;;;;;;;;;;21.50;71.00;;;;;;5040635;28;1925;-66
2023/09/23 05:06:51;;;;;;;;;;;21.50;71.10;;;;;;5042852;28;1451;-66
2023/09/23 05:09:16;;;;;;;;;;;21.50;71.10;;;;;;5022685;28;1215;-66
2023/09/23 05:11:42;;;;;;;;;;;21.50;71.00;;;;;;5041965;28;1351;-66
2023/09/23 05:14:07;;;;;;;;;;;21.50;71.00;;;;;;5039518;28;1914;-66
2023/09/23 05:16:33;;;;;;;;;;;21.50;71.00;;;;;;5044024;28;1460;-66
2023/09/23 05:18:59;;;;;;;;;;;21.50;71.00;;;;;;5043646;28;1443;-66
2023/09/23 05:21:24;;;;;;;;;;;21.50;71.00;;;;;;5041257;28;1372;-66
2023/09/23 05:23:51;;;;;;;;;;;21.50;71.00;;;;;;5039541;28;1514;-66
2023/09/23 05:26:16;;;;;;;;;;;21.50;71.10;;;;;;5022595;28;1530;-66
2023/09/23 05:28:42;;;;;;;;;;;21.40;71.00;;;;;;5022596;28;1378;-66
2023/09/23 05:31:08;;;;;;;;;;;21.50;71.10;;;;;;5040943;28;1534;-66
2023/09/23 05:33:33;;;;;;;;;;;21.50;71.10;;;;;;5041335;28;1993;-66
2023/09/23 05:35:59;;;;;;;;;;;21.50;71.10;;;;;;5042763;28;1370;-66
2023/09/23 05:38:24;;;;;;;;;;;21.50;71.10;;;;;;5038797;28;1341;-66
2023/09/23 05:40:52;;;;;;;;;;;21.50;71.10;;;;;;5039558;28;1434;-65
2023/09/23 05:43:17;;;;;;;;;;;21.50;71.10;;;;;;5038159;28;1343;-66
2023/09/23 05:45:43;;;;;;;;;;;21.50;71.10;;;;;;5039675;28;1462;-65
2023/09/23 05:48:09;;;;;;;;;;;21.50;71.10;;;;;;5022532;28;1379;-66
2023/09/23 05:50:35;;;;;;;;;;;21.50;71.10;;;;;;5040509;28;1470;-67
2023/09/23 05:53:01;;;;;;;;;;;21.50;71.10;;;;;;5041026;28;1914;-66
2023/09/23 05:55:27;;;;;;;;;;;21.50;71.10;;;;;;5021336;28;1129;-65
2023/09/23 05:57:53;;;;;;;;;;;21.50;71.10;;;;;;5038065;28;1532;-65
2023/09/23 06:00:19;;;;;;;;;;;21.50;71.10;;;;;;5039152;28;1263;-65
2023/09/23 06:02:45;;;;;;;;;;;21.50;71.10;;;;;;5026947;28;1351;-66
2023/09/23 06:05:11;;;;;;;;;;;21.50;71.10;;;;;;5039962;28;1261;-65
2023/09/23 06:07:37;;;;;;;;;;;21.50;71.10;;;;;;5021035;28;1565;-66
2023/09/23 06:10:04;;;;;;;;;;;21.50;71.10;;;;;;5040061;28;1391;-70
2023/09/23 06:12:29;;;;;;;;;;;21.50;71.10;;;;;;5026032;28;1906;-70
2023/09/23 06:14:58;;;;;;;;;;;21.50;71.10;;;;;;5009715;28;1797;-69
2023/09/23 06:17:24;;;;;;;;;;;21.50;71.10;;;;;;5023782;28;1485;-67
2023/09/23 06:19:51;;;;;;;;;;;21.50;71.10;;;;;;5040638;28;1104;-67
2023/09/23 06:22:16;;;;;;;;;;;21.50;71.10;;;;;;5042859;28;1401;-67
2023/09/23 06:24:42;;;;;;;;;;;21.50;71.10;;;;;;5039236;28;1304;-68
2023/09/23 06:27:07;;;;;;;;;;;21.50;71.20;;;;;;5038451;28;1445;-66
2023/09/23 06:29:33;;;;;;;;;;;21.50;71.10;;;;;;5037816;28;1351;-68
2023/09/23 06:31:59;;;;;;;;;;;21.50;71.10;;;;;;5038823;28;1264;-68
2023/09/23 06:34:24;;;;;;;;;;;21.50;71.10;;;;;;5039839;28;1995;-69
2023/09/23 06:36:50;;;;;;;;;;;21.50;71.10;;;;;;5043172;28;1656;-66
2023/09/23 06:39:15;;;;;;;;;;;21.50;71.10;;;;;;5024438;28;1265;-67
2023/09/23 06:41:40;;;;;;;;;;;21.50;71.10;;;;;;5038580;28;1197;-67
2023/09/23 06:44:07;;;;;;;;;;;21.50;71.10;;;;;;5041250;28;1454;-67
2023/09/23 06:46:33;;;;;;;;;;;21.50;71.20;;;;;;5038126;28;1980;-66
2023/09/23 06:48:58;;;;;;;;;;;21.50;71.20;;;;;;5018840;28;1479;-66
2023/09/23 06:51:24;;;;;;;;;;;21.50;71.10;;;;;;5033657;28;1628;-67
2023/09/23 06:53:49;;;;;;;;;;;21.50;71.20;;;;;;5041917;28;1911;-66
2023/09/23 06:56:15;;;;;;;;;;;21.50;71.20;;;;;;5039406;28;1450;-67
2023/09/23 06:58:40;;;;;;;;;;;21.50;71.20;;;;;;5039049;28;1468;-69
2023/09/23 07:01:06;;;;;;;;;;;21.50;71.10;;;;;;5036482;28;3067;-70
2023/09/23 07:03:31;;;;;;;;;;;21.50;70.60;;;;;;5041370;28;1566;-70
2023/09/23 07:05:57;;;;;;;;;;;21.50;68.20;;;;;;5039575;28;1866;-70
2023/09/23 07:08:22;;;;;;;;;;;21.50;67.50;;;;;;5021175;28;1309;-70
2023/09/23 07:10:49;;;;;;;;;;;21.40;66.60;;;;;;5040306;28;1247;-70
2023/09/23 07:13:15;;;;;;;;;;;21.40;65.60;;;;;;5037932;28;1947;-70
2023/09/23 07:15:41;;;;;;;;;;;21.40;64.70;;;;;;5043018;28;1268;-70
2023/09/23 07:18:06;;;;;;;;;;;21.40;64.50;;;;;;5017864;28;1370;-70
2023/09/23 07:20:32;;;;;;;;;;;21.40;64.00;;;;;;5021239;28;1248;-70
2023/09/23 07:22:58;;;;;;;;;;;21.40;64.60;;;;;;5052213;22;3784;-69
2023/09/23 07:25:24;;;;;;;;;;;21.40;64.10;;;;;;5013725;28;1585;-71
2023/09/23 07:27:49;;;;;;;;;;;21.30;64.00;;;;;;5012469;28;1175;-71
2023/09/23 07:30:15;;;;;;;;;;;21.30;64.00;;;;;;5003147;28;1320;-71
2023/09/23 07:32:40;;;;;;;;;;;21.30;64.20;;;;;;5020838;28;1914;-72
2023/09/23 07:35:07;;;;;;;;;;;21.30;63.80;;;;;;5016703;28;1344;-73
2023/09/23 07:37:33;;;;;;;;;;;21.30;63.80;;;;;;5023875;28;1477;-72
2023/09/23 07:39:58;;;;;;;;;;;21.30;63.60;;;;;;5004619;28;921;-72
2023/09/23 07:42:24;;;;;;;;;;;21.30;63.50;;;;;;5003462;28;1328;-71
2023/09/23 07:44:49;;;;;;;;;;;21.30;63.40;;;;;;5003141;28;1388;-68
2023/09/23 07:47:15;;;;;;;;;;;21.30;63.20;;;;;;5025007;28;1439;-72
2023/09/23 07:49:40;;;;;;;;;;;21.30;62.80;;;;;;5023419;28;1421;-73
2023/09/23 07:52:06;;;;;;;;;;;21.30;62.90;;;;;;5022651;28;1224;-71
2023/09/23 07:54:32;;;;;;;;;;;21.20;62.60;;;;;;5019562;28;2005;-72
2023/09/23 07:56:57;;;;;;;;;;;21.20;62.20;;;;;;5021707;28;1224;-69
2023/09/23 07:59:23;;;;;;;;;;;21.20;62.60;;;;;;5026545;28;1366;-72
2023/09/23 08:01:48;;;;;;;;;;;21.20;62.10;;;;;;5003389;28;1093;-72
2023/09/23 08:04:14;;;;;;;;;;;21.20;62.00;;;;;;5022255;28;1308;-71
2023/09/23 08:06:41;;;;;;;;;;;21.20;62.00;;;;;;5022557;28;2430;-70
2023/09/23 08:09:06;;;;;;;;;;;21.20;61.40;;;;;;5027085;28;1343;-74
2023/09/23 08:11:32;;;;;;;;;;;21.20;61.40;;;;;;5022277;28;2146;-73
2023/09/23 08:13:57;;;;;;;;;;;21.20;60.90;;;;;;5025713;28;1915;-71
2023/09/23 08:16:23;;;;;;;;;;;21.10;60.80;;;;;;5024240;28;1352;-73
2023/09/23 08:18:49;;;;;;;;;;;21.20;61.80;;;;;;5023860;28;1696;-73
2023/09/23 08:21:15;;;;;;;;;;;21.20;62.40;;;;;;5008740;28;1373;-73
2023/09/23 08:23:40;;;;;;;;;;;21.20;61.30;;;;;;5005177;28;1281;-71
2023/09/23 08:26:06;;;;;;;;;;;21.10;61.30;;;;;;5005055;28;1906;-74
2023/09/23 08:28:31;;;;;;;;;;;21.10;61.70;;;;;;5022061;28;1408;-70
2023/09/23 08:30:57;;;;;;;;;;;21.10;61.30;;;;;;5025875;28;1452;-70
2023/09/23 08:33:22;;;;;;;;;;;21.10;61.10;;;;;;5021134;28;1899;-73
2023/09/23 08:35:48;;;;;;;;;;;21.10;61.10;;;;;;5022928;28;1233;-73
2023/09/23 08:38:14;;;;;;;;;;;21.10;60.90;;;;;;5005857;28;1555;-71
2023/09/23 08:40:40;;;;;;;;;;;21.10;60.80;;;;;;5008740;28;1340;-72
2023/09/23 08:43:05;;;;;;;;;;;21.10;60.70;;;;;;5022368;28;1395;-73
2023/09/23 08:45:31;;;;;;;;;;;21.10;61.00;;;;;;5024488;28;1435;-74
2023/09/23 08:47:57;;;;;;;;;;;21.10;60.80;;;;;;5006318;28;1462;-73
2023/09/23 08:50:22;;;;;;;;;;;21.10;60.70;;;;;;5022178;28;1259;-72
2023/09/23 08:52:48;;;;;;;;;;;21.10;60.80;;;;;;5019544;28;2005;-73
2023/09/23 08:55:14;;;;;;;;;;;21.10;60.90;;;;;;4997577;28;1394;-73
2023/09/23 08:57:40;;;;;;;;;;;21.10;61.00;;;;;;5007847;28;1472;-73
2023/09/23 09:00:08;;;;;;;;;;;21.10;60.40;;;;;;5024833;28;1302;-73
2023/09/23 09:02:34;;;;;;;;;;;21.00;59.90;;;;;;5024966;28;1744;-73
2023/09/23 09:04:59;;;;;;;;;;;21.10;60.30;;;;;;5018395;28;1299;-73
2023/09/23 09:07:31;;;;;;;;;;;21.00;60.10;;;;;;5020722;28;1395;-73
2023/09/23 09:09:57;;;;;;;;;;;21.10;59.90;;;;;;5006887;28;1525;-73
2023/09/23 09:12:22;;;;;;;;;;;21.10;59.80;;;;;;5009161;28;1949;-73
2023/09/23 09:14:51;;;;;;;;;;;21.00;60.00;;;;;;5021080;28;1577;-70
2023/09/23 09:17:20;;;;;;;;;;;21.00;59.80;;;;;;5006980;28;1405;-72
2023/09/23 09:19:46;;;;;;;;;;;21.10;59.80;;;;;;5009388;28;1283;-70
2023/09/23 09:22:11;;;;;;;;;;;21.00;59.90;;;;;;5019832;28;1278;-71
2023/09/23 09:24:37;;;;;;;;;;;21.00;59.80;;;;;;5008406;28;1520;-68
2023/09/23 09:27:02;;;;;;;;;;;21.00;59.80;;;;;;5027610;28;1458;-72
2023/09/23 09:29:29;;;;;;;;;;;21.00;59.40;;;;;;5025512;28;1501;-68
2023/09/23 09:31:59;;;;;;;;;;;21.00;59.50;;;;;;5005918;28;1411;-71
2023/09/23 09:34:25;;;;;;;;;;;21.00;59.60;;;;;;5022271;28;1988;-71
2023/09/23 09:36:53;;;;;;;;;;;21.00;59.80;;;;;;5010611;28;1471;-70
2023/09/23 09:39:19;;;;;;;;;;;21.00;59.70;;;;;;5006992;28;1274;-71
2023/09/23 09:41:50;;;;;;;;;;;21.00;59.60;;;;;;5013306;28;1322;-70
2023/09/23 09:44:16;;;;;;;;;;;21.00;59.70;;;;;;5023997;28;1348;-69
2023/09/23 09:46:42;;;;;;;;;;;21.00;59.10;;;;;;5023937;28;1240;-71
2023/09/23 09:49:08;;;;;;;;;;;21.00;59.10;;;;;;5006880;28;1507;-70
2023/09/23 09:51:35;;;;;;;;;;;21.00;58.90;;;;;;5008139;28;1410;-71
2023/09/23 09:54:01;;;;;;;;;;;21.00;58.50;;;;;;5005363;28;1910;-71
2023/09/23 09:56:27;;;;;;;;;;;21.00;58.70;;;;;;5018394;28;1247;-73
2023/09/23 09:58:54;;;;;;;;;;;21.00;58.60;;;;;;5021853;28;1269;-68
2023/09/23 10:01:19;;;;;;;;;;;21.00;58.80;;;;;;5006367;28;1160;-70
2023/09/23 10:03:49;;;;;;;;;;;21.00;58.90;;;;;;5023996;28;1304;-71
2023/09/23 10:06:21;;;;;;;;;;;21.00;59.20;;;;;;5019409;28;1326;-73
2023/09/23 10:08:48;;;;;;;;;;;21.00;59.10;;;;;;5008864;28;1461;-71
2023/09/23 10:11:14;;;;;;;;;;;21.00;59.00;;;;;;5022890;28;1474;-71
2023/09/23 10:13:40;;;;;;;;;;;20.90;58.70;;;;;;4995676;28;1906;-70
2023/09/23 10:16:12;;;;;;;;;;;20.90;58.80;;;;;;5022242;28;1315;-72
2023/09/23 10:18:39;;;;;;;;;;;20.90;58.70;;;;;;4989039;28;1397;-70
2023/09/23 10:21:05;;;;;;;;;;;20.90;58.80;;;;;;5003176;28;1271;-73
2023/09/23 10:23:35;;;;;;;;;;;20.90;58.80;;;;;;5021663;28;1758;-70
2023/09/23 10:26:10;;;;;;;;;;;20.90;58.80;;;;;;5026591;28;1266;-70
2023/09/23 10:28:35;;;;;;;;;;;20.90;59.00;;;;;;5024366;28;1254;-71
2023/09/23 10:31:06;;;;;;;;;;;20.90;59.10;;;;;;5026402;28;1215;-73
2023/09/23 10:33:34;;;;;;;;;;;20.90;59.30;;;;;;4995910;28;1910;-70
2023/09/23 10:36:00;;;;;;;;;;;20.90;59.10;;;;;;4998336;28;1354;-71
2023/09/23 10:38:31;;;;;;;;;;;20.90;59.20;;;;;;4997827;28;1433;-72
2023/09/23 10:40:56;;;;;;;;;;;21.00;59.30;;;;;;5008270;28;1561;-70
2023/09/23 10:43:22;;;;;;;;;;;20.90;59.50;;;;;;4998351;28;1484;-70
2023/09/23 10:45:54;;;;;;;;;;;20.90;59.50;;;;;;5009878;28;1282;-72
2023/09/23 10:48:20;;;;;;;;;;;21.00;59.30;;;;;;5022950;28;1247;-72
2023/09/23 10:50:45;;;;;;;;;;;20.90;59.20;;;;;;5022896;28;1328;-71
2023/09/23 10:53:11;;;;;;;;;;;20.90;59.10;;;;;;5008338;28;1902;-75
2023/09/23 10:55:37;;;;;;;;;;;20.90;59.30;;;;;;5010378;28;1366;-72
2023/09/23 10:58:04;;;;;;;;;;;20.90;59.50;;;;;;5008538;28;1358;-71
2023/09/23 11:00:33;;;;;;;;;;;21.00;59.60;;;;;;5006536;28;1310;-71
2023/09/23 11:03:15;;;;;;;;;;;21.00;59.40;;;;;;5006158;28;1303;-70
2023/09/23 11:05:43;;;;;;;;;;;20.90;59.20;;;;;;4994417;28;1358;-71
2023/09/23 11:08:10;;;;;;;;;;;20.90;59.50;;;;;;5005301;28;1041;-70
2023/09/23 11:10:42;;;;;;;;;;;21.00;59.70;;;;;;5007895;28;1774;-70
2023/09/23 11:13:11;;;;;;;;;;;21.00;59.50;;;;;;5022026;28;1914;-71
2023/09/23 11:15:38;;;;;;;;;;;20.90;59.30;;;;;;5021933;28;1940;-71
2023/09/23 11:18:21;;;;;;;;;;;20.90;59.30;;;;;;5004647;28;1329;-70
2023/09/23 11:20:47;;;;;;;;;;;20.90;59.30;;;;;;4994599;28;1290;-71
2023/09/23 11:23:12;;;;;;;;;;;20.90;59.20;;;;;;5021994;28;1331;-72
2023/09/23 11:25:42;;;;;;;;;;;20.90;59.20;;;;;;5028786;28;1356;-70
2023/09/23 11:28:28;;;;;;;;;;;20.90;59.20;;;;;;5008260;28;955;-70
2023/09/23 11:30:54;;;;;;;;;;;20.90;59.20;;;;;;5025824;28;1176;-71
2023/09/23 11:33:20;;;;;;;;;;;20.90;59.20;;;;;;5009942;28;1922;-71
2023/09/23 11:35:46;;;;;;;;;;;20.90;58.40;;;;;;5010498;28;1448;-70
2023/09/23 11:38:11;;;;;;;;;;;20.90;58.20;;;;;;5026255;28;1390;-76
2023/09/23 11:40:37;;;;;;;;;;;20.90;58.20;;;;;;4990104;28;1508;-72
2023/09/23 11:43:03;;;;;;;;;;;20.90;58.30;;;;;;5004768;28;1293;-73
2023/09/23 11:45:29;;;;;;;;;;;20.90;58.50;;;;;;4994698;28;1304;-70
2023/09/23 11:47:59;;;;;;;;;;;20.90;58.30;;;;;;5005498;28;1433;-70
2023/09/23 11:50:25;;;;;;;;;;;20.90;58.50;;;;;;5025921;28;1181;-70
2023/09/23 11:52:52;;;;;;;;;;;20.90;58.50;;;;;;5025058;28;1910;-71
2023/09/23 11:55:18;;;;;;;;;;;20.90;57.70;;;;;;5023538;28;1117;-71
2023/09/23 11:57:43;;;;;;;;;;;20.90;57.90;;;;;;5025386;28;1126;-71
2023/09/23 12:00:15;;;;;;;;;;;20.90;57.90;;;;;;5012789;28;1249;-70
2023/09/23 12:02:40;;;;;;;;;;;20.90;58.00;;;;;;5028512;28;1230;-70
2023/09/23 12:05:07;;;;;;;;;;;20.90;58.00;;;;;;5015627;28;1264;-72
2023/09/23 12:07:33;;;;;;;;;;;20.90;58.10;;;;;;4989441;28;1235;-71
2023/09/23 12:09:59;;;;;;;;;;;20.90;57.80;;;;;;5025740;28;856;-70
2023/09/23 12:12:26;;;;;;;;;;;20.90;58.10;;;;;;5006427;28;1982;-71
2023/09/23 12:14:52;;;;;;;;;;;20.90;58.00;;;;;;5025179;28;1221;-72
2023/09/23 12:17:17;;;;;;;;;;;20.90;58.00;;;;;;5023238;28;1170;-70
2023/09/23 12:19:46;;;;;;;;;;;20.90;58.20;;;;;;5009656;28;1275;-71
2023/09/23 12:22:17;;;;;;;;;;;20.90;58.20;;;;;;5006028;28;1231;-71
2023/09/23 12:24:43;;;;;;;;;;;20.90;58.40;;;;;;5010007;28;1374;-68
2023/09/23 12:27:09;;;;;;;;;;;20.90;57.70;;;;;;5019644;28;1163;-70
2023/09/23 12:29:35;;;;;;;;;;;20.90;57.80;;;;;;5005038;28;1080;-71
2023/09/23 12:32:00;;;;;;;;;;;20.90;58.00;;;;;;5005288;28;876;-71
2023/09/23 12:34:26;;;;;;;;;;;20.90;58.20;;;;;;5007713;28;1958;-73
2023/09/23 12:36:51;;;;;;;;;;;20.90;58.10;;;;;;5008995;28;1489;-71
2023/09/23 12:39:17;;;;;;;;;;;20.90;58.10;;;;;;5024150;28;1573;-71
2023/09/23 12:41:43;;;;;;;;;;;20.90;58.20;;;;;;5007239;28;1211;-72
2023/09/23 12:44:08;;;;;;;;;;;20.90;58.40;;;;;;5023556;28;1269;-71
2023/09/23 12:46:34;;;;;;;;;;;20.90;58.30;;;;;;5024435;28;1379;-71
2023/09/23 12:48:59;;;;;;;;;;;20.90;58.30;;;;;;4998577;28;1200;-68
2023/09/23 12:51:26;;;;;;;;;;;20.90;58.20;;;;;;5005574;28;2476;-72
2023/09/23 12:53:51;;;;;;;;;;;20.90;58.00;;;;;;5010914;28;2224;-73
2023/09/23 12:56:18;;;;;;;;;;;20.90;58.00;;;;;;5012792;28;2292;-71
2023/09/23 12:58:44;;;;;;;;;;;20.90;58.20;;;;;;5024019;28;1572;-70
2023/09/23 13:01:09;;;;;;;;;;;20.90;58.10;;;;;;5007052;28;1178;-73
2023/09/23 13:03:35;;;;;;;;;;;20.90;57.80;;;;;;4995387;28;1379;-69
2023/09/23 13:06:00;;;;;;;;;;;20.90;57.70;;;;;;5004807;28;1488;-71
2023/09/23 13:08:26;;;;;;;;;;;20.90;57.70;;;;;;5000306;28;1496;-71
2023/09/23 13:10:52;;;;;;;;;;;20.90;57.30;;;;;;5025769;28;1103;-72
2023/09/23 13:13:17;;;;;;;;;;;20.90;57.70;;;;;;5005203;28;1958;-72
2023/09/23 13:15:43;;;;;;;;;;;20.90;57.70;;;;;;5006929;28;1553;-70
2023/09/23 13:18:09;;;;;;;;;;;20.90;57.70;;;;;;5020227;28;1165;-71
2023/09/23 13:20:34;;;;;;;;;;;20.90;57.60;;;;;;5023887;28;1366;-71
2023/09/23 13:23:00;;;;;;;;;;;20.90;57.90;;;;;;5003902;28;1386;-70
2023/09/23 13:25:25;;;;;;;;;;;20.90;57.20;;;;;;5005894;28;1441;-71
2023/09/23 13:27:52;;;;;;;;;;;20.90;57.40;;;;;;5013097;28;1293;-70
2023/09/23 13:30:18;;;;;;;;;;;20.90;57.50;;;;;;5020642;28;1433;-72
2023/09/23 13:32:44;;;;;;;;;;;20.90;57.80;;;;;;5009004;28;1969;-71
2023/09/23 13:35:09;;;;;;;;;;;20.90;57.60;;;;;;5018191;28;1228;-71
2023/09/23 13:37:36;;;;;;;;;;;20.90;57.60;;;;;;5021424;28;1363;-71
2023/09/23 13:40:02;;;;;;;;;;;20.90;57.60;;;;;;5021608;28;1320;-70
2023/09/23 13:42:27;;;;;;;;;;;20.90;57.80;;;;;;5023977;28;1322;-70
2023/09/23 13:44:53;;;;;;;;;;;20.90;57.90;;;;;;5018839;28;1285;-71
2023/09/23 13:47:18;;;;;;;;;;;20.90;57.70;;;;;;5021856;28;1228;-70
2023/09/23 13:49:43;;;;;;;;;;;20.90;57.30;;;;;;5004767;28;1391;-72
2023/09/23 13:52:09;;;;;;;;;;;20.90;57.50;;;;;;4999145;28;2354;-70
2023/09/23 13:54:35;;;;;;;;;;;20.90;57.80;;;;;;5027487;28;2582;-71
2023/09/23 13:57:00;;;;;;;;;;;20.90;57.60;;;;;;5011083;28;2202;-71
2023/09/23 13:59:26;;;;;;;;;;;20.90;57.90;;;;;;5020704;28;1422;-70
2023/09/23 14:01:52;;;;;;;;;;;20.90;57.90;;;;;;5017436;28;1450;-71
2023/09/23 14:04:17;;;;;;;;;;;20.90;57.80;;;;;;5022466;28;1352;-70
2023/09/23 14:06:42;;;;;;;;;;;20.80;57.80;;;;;;5020398;28;1499;-70
2023/09/23 14:09:09;;;;;;;;;;;20.80;57.90;;;;;;5018910;28;1207;-71
2023/09/23 14:11:35;;;;;;;;;;;20.90;57.80;;;;;;5009659;28;1574;-71
2023/09/23 14:14:03;;;;;;;;;;;20.90;57.80;;;;;;5010174;28;1910;-70
2023/09/23 14:16:32;;;;;;;;;;;20.80;57.70;;;;;;5021405;28;1412;-71
2023/09/23 14:18:58;;;;;;;;;;;20.90;57.40;;;;;;5022324;28;1435;-72
2023/09/23 14:21:23;;;;;;;;;;;20.90;57.60;;;;;;5021252;28;1299;-71
2023/09/23 14:23:49;;;;;;;;;;;20.90;57.70;;;;;;5022251;28;1260;-70
2023/09/23 14:26:14;;;;;;;;;;;20.90;58.20;;;;;;4994276;28;1385;-72